createdAt,value
2019-02-14T00:00:00.618Z,100868.85
2019-02-14T00:02:27.582Z,100874.39
2019-02-14T00:04:55.487Z,100864.49
2019-02-14T00:07:22.245Z,100865.80
2019-02-14T00:09:51.637Z,100864.33
2019-02-14T00:12:18.437Z,100864.63
2019-02-14T00:14:45.514Z,100867.70
2019-02-14T00:17:12.217Z,100866.73
2019-02-14T00:19:39.297Z,100866.36
2019-02-14T00:22:06.456Z,100862.93
2019-02-14T00:24:33.271Z,100864.89
2019-02-14T00:27:00.010Z,100858.86
2019-02-14T00:29:30.259Z,100854.95
2019-02-14T00:31:56.963Z,100853.19
2019-02-14T00:34:26.712Z,100847.02
2019-02-14T00:36:54.159Z,100845.84
2019-02-14T00:39:21.313Z,100852.53
2019-02-14T00:41:48.168Z,100856.42
2019-02-14T00:44:14.859Z,100849.62
2019-02-14T00:46:43.462Z,100841.27
2019-02-14T00:49:10.151Z,100841.45
2019-02-14T00:51:36.883Z,100843.30
2019-02-14T00:54:03.951Z,100840.34
2019-02-14T00:56:30.783Z,100836.11
2019-02-14T00:58:58.461Z,100844.02
2019-02-14T01:01:25.173Z,100836.51
2019-02-14T01:03:51.952Z,100833.73
2019-02-14T01:06:18.695Z,100829.50
2019-02-14T01:08:45.533Z,100829.67
2019-02-14T01:11:12.279Z,100834.25
2019-02-14T01:13:39.056Z,100832.79
2019-02-14T01:16:05.909Z,100835.16
2019-02-14T01:18:33.027Z,100841.58
2019-02-14T01:20:59.831Z,100832.63
2019-02-14T01:23:26.661Z,100830.22
2019-02-14T01:25:54.903Z,100828.14
2019-02-14T01:28:21.709Z,100832.69
2019-02-14T01:30:48.565Z,100839.06
2019-02-14T01:33:15.403Z,100844.32
2019-02-14T01:35:42.484Z,100835.51
2019-02-14T01:38:09.214Z,100844.42
2019-02-14T01:40:35.940Z,100831.28
2019-02-14T01:43:02.679Z,100825.54
2019-02-14T01:45:29.406Z,100833.69
2019-02-14T01:47:56.276Z,100830.25
2019-02-14T01:50:23.421Z,100819.45
2019-02-14T01:52:50.160Z,100810.98
2019-02-14T01:55:17.041Z,100806.41
2019-02-14T01:57:43.775Z,100809.03
2019-02-14T02:00:13.427Z,100814.74
2019-02-14T02:02:40.266Z,100813.31
2019-02-14T02:05:06.994Z,100805.16
2019-02-14T02:07:33.797Z,100815.92
2019-02-14T02:10:00.613Z,100813.48
2019-02-14T02:12:28.096Z,100804.17
2019-02-14T02:14:54.814Z,100804.70
2019-02-14T02:17:23.195Z,100811.72
2019-02-14T02:19:50.240Z,100816.80
2019-02-14T02:22:17.304Z,100812.89
2019-02-14T02:24:44.069Z,100805.36
2019-02-14T02:27:10.822Z,100814.41
2019-02-14T02:29:37.649Z,100806.79
2019-02-14T02:32:04.392Z,100813.53
2019-02-14T02:34:34.050Z,100811.67
2019-02-14T02:37:00.805Z,100812.19
2019-02-14T02:39:27.554Z,100820.40
2019-02-14T02:41:54.283Z,100820.05
2019-02-14T02:44:21.024Z,100809.55
2019-02-14T02:46:48.176Z,100814.58
2019-02-14T02:49:15.032Z,100815.08
2019-02-14T02:51:45.505Z,100813.67
2019-02-14T02:54:12.230Z,100811.46
2019-02-14T02:56:39.406Z,100814.04
2019-02-14T02:59:06.237Z,100813.72
2019-02-14T03:01:32.954Z,100813.35
2019-02-14T03:03:59.658Z,100808.97
2019-02-14T03:06:26.360Z,100801.49
2019-02-14T03:08:55.738Z,100805.25
2019-02-14T03:11:22.436Z,100813.75
2019-02-14T03:13:49.188Z,100811.20
2019-02-14T03:16:16.250Z,100815.02
2019-02-14T03:18:44.290Z,100820.50
2019-02-14T03:21:11.014Z,100803.86
2019-02-14T03:23:38.108Z,100812.67
2019-02-14T03:26:04.958Z,100813.22
2019-02-14T03:28:31.732Z,100816.92
2019-02-14T03:30:58.870Z,100823.38
2019-02-14T03:33:25.938Z,100829.47
2019-02-14T03:35:52.640Z,100815.40
2019-02-14T03:38:19.391Z,100808.45
2019-02-14T03:40:48.698Z,100800.69
2019-02-14T03:43:15.437Z,100805.97
2019-02-14T03:45:42.144Z,100810.50
2019-02-14T03:48:08.880Z,100812.76
2019-02-14T03:50:35.634Z,100821.98
2019-02-14T03:53:02.385Z,100819.17
2019-02-14T03:55:29.304Z,100816.51
2019-02-14T03:57:56.090Z,100813.91
2019-02-14T04:00:23.968Z,100813.75
2019-02-14T04:02:50.808Z,100819.64
2019-02-14T04:05:17.930Z,100824.72
2019-02-14T04:07:44.698Z,100825.17
2019-02-14T04:10:14.232Z,100837.41
2019-02-14T04:12:41.298Z,100830.77
2019-02-14T04:15:10.936Z,100836.90
2019-02-14T04:17:37.776Z,100825.81
2019-02-14T04:20:05.614Z,100832.63
2019-02-14T04:22:32.338Z,100832.41
2019-02-14T04:24:59.140Z,100830.02
2019-02-14T04:27:25.945Z,100839.77
2019-02-14T04:29:54.744Z,100832.70
2019-02-14T04:32:21.717Z,100836.22
2019-02-14T04:34:48.639Z,100843.38
2019-02-14T04:37:15.392Z,100834.03
2019-02-14T04:39:42.421Z,100836.50
2019-02-14T04:42:09.241Z,100838.59
2019-02-14T04:44:36.070Z,100844.11
2019-02-14T04:47:04.030Z,100835.11
2019-02-14T04:49:30.914Z,100835.72
2019-02-14T04:52:02.294Z,100845.59
2019-02-14T04:54:29.198Z,100839.64
2019-02-14T04:56:56.321Z,100842.27
2019-02-14T04:59:23.068Z,100847.98
2019-02-14T05:01:50.132Z,100860.46
2019-02-14T05:04:16.988Z,100848.55
2019-02-14T05:06:44.475Z,100848.05
2019-02-14T05:09:11.413Z,100844.05
2019-02-14T05:11:38.269Z,100846.45
2019-02-14T05:14:10.115Z,100851.03
2019-02-14T05:16:36.958Z,100845.06
2019-02-14T05:19:03.945Z,100849.36
2019-02-14T05:21:30.654Z,100846.48
2019-02-14T05:23:57.696Z,100832.20
2019-02-14T05:26:24.794Z,100845.19
2019-02-14T05:28:51.897Z,100848.20
2019-02-14T05:31:18.787Z,100843.23
2019-02-14T05:33:48.635Z,100852.72
2019-02-14T05:36:17.629Z,100852.09
2019-02-14T05:38:44.588Z,100851.89
2019-02-14T05:41:11.474Z,100848.08
2019-02-14T05:43:38.240Z,100860.86
2019-02-14T05:46:05.367Z,100852.62
2019-02-14T05:48:32.258Z,100848.92
2019-02-14T05:50:59.014Z,100868.73
2019-02-14T05:53:25.773Z,100853.39
2019-02-14T05:55:52.532Z,100863.42
2019-02-14T05:58:19.374Z,100856.62
2019-02-14T06:00:46.412Z,100859.05
2019-02-14T06:03:13.248Z,100860.48
2019-02-14T06:05:39.970Z,100861.69
2019-02-14T06:08:06.882Z,100863.05
2019-02-14T06:10:33.600Z,100863.05
2019-02-14T06:13:00.303Z,100864.42
2019-02-14T06:15:27.255Z,100870.22
2019-02-14T06:17:53.991Z,100868.53
2019-02-14T06:20:22.854Z,100862.77
2019-02-14T06:22:49.816Z,100881.69
2019-02-14T06:25:16.699Z,100883.06
2019-02-14T06:27:43.618Z,100883.42
2019-02-14T06:30:11.611Z,100881.92
2019-02-14T06:32:38.768Z,100884.56
2019-02-14T06:35:06.683Z,100884.76
2019-02-14T06:37:33.636Z,100881.30
2019-02-14T06:40:01.153Z,100884.63
2019-02-14T06:42:28.567Z,100889.95
2019-02-14T06:44:58.188Z,100890.84
2019-02-14T06:47:25.063Z,100892.02
2019-02-14T06:49:52.111Z,100897.34
2019-02-14T06:52:18.904Z,100895.73
2019-02-14T06:54:45.642Z,100897.27
2019-02-14T06:57:12.527Z,100890.30
2019-02-14T06:59:39.622Z,100902.00
2019-02-14T07:02:06.725Z,100896.14
2019-02-14T07:04:33.677Z,100912.23
2019-02-14T07:07:01.047Z,100920.27
2019-02-14T07:09:28.957Z,100919.16
2019-02-14T07:11:55.815Z,100920.81
2019-02-14T07:14:23.279Z,100926.59
2019-02-14T07:16:49.967Z,100920.57
2019-02-14T07:19:16.715Z,100925.17
2019-02-14T07:21:44.682Z,100932.34
2019-02-14T07:24:11.555Z,100930.66
2019-02-14T07:26:38.552Z,100932.11
2019-02-14T07:29:05.405Z,100941.83
2019-02-14T07:31:32.239Z,100938.45
2019-02-14T07:33:59.070Z,100939.23
2019-02-14T07:36:26.180Z,100943.36
2019-02-14T07:38:58.278Z,100930.73
2019-02-14T07:41:26.453Z,100935.92
2019-02-14T07:43:53.387Z,100935.92
2019-02-14T07:46:22.724Z,100944.66
2019-02-14T07:48:48.963Z,100944.86
2019-02-14T07:51:16.175Z,100948.05
2019-02-14T07:53:43.013Z,100946.55
2019-02-14T07:56:09.784Z,100948.75
2019-02-14T07:58:36.695Z,100943.94
2019-02-14T08:01:03.536Z,100950.95
2019-02-14T08:03:30.378Z,100945.75
2019-02-14T08:05:57.153Z,100954.24
2019-02-14T08:08:23.900Z,100949.84
2019-02-14T08:10:52.581Z,100953.96
2019-02-14T08:13:19.337Z,100959.04
2019-02-14T08:15:49.113Z,100962.56
2019-02-14T08:18:18.503Z,100962.97
2019-02-14T08:20:45.286Z,100955.80
2019-02-14T08:23:12.191Z,100954.28
2019-02-14T08:25:39.127Z,100948.34
2019-02-14T08:28:06.070Z,100955.89
2019-02-14T08:30:33.083Z,100959.30
2019-02-14T08:33:00.142Z,100954.09
2019-02-14T08:35:27.209Z,100969.36
2019-02-14T08:37:54.141Z,100961.77
2019-02-14T08:40:23.729Z,100964.09
2019-02-14T08:42:50.471Z,100963.34
2019-02-14T08:45:17.963Z,100969.70
2019-02-14T08:47:45.031Z,100976.47
2019-02-14T08:50:11.792Z,100972.45
2019-02-14T08:52:39.195Z,100961.12
2019-02-14T08:55:06.017Z,100964.39
2019-02-14T08:57:32.869Z,100958.03
2019-02-14T08:59:59.656Z,100959.80
2019-02-14T09:02:26.408Z,100960.65
2019-02-14T09:04:53.206Z,100950.25
2019-02-14T09:07:20.158Z,100947.86
2019-02-14T09:09:47.184Z,100939.22
2019-02-14T09:12:15.271Z,100952.61
2019-02-14T09:14:42.311Z,100950.82
2019-02-14T09:17:12.973Z,100949.86
2019-02-14T09:19:42.219Z,100948.89
2019-02-14T09:22:09.599Z,100947.25
2019-02-14T09:24:36.402Z,100950.81
2019-02-14T09:27:03.277Z,100950.16
2019-02-14T09:29:30.094Z,100944.07
2019-02-14T09:31:57.382Z,100949.75
2019-02-14T09:34:24.139Z,100954.27
2019-02-14T09:36:50.873Z,100954.54
2019-02-14T09:39:17.599Z,100960.45
2019-02-14T09:41:44.268Z,100954.70
2019-02-14T09:44:11.469Z,100955.52
2019-02-14T09:46:38.324Z,100956.56
2019-02-14T09:49:05.237Z,100958.42
2019-02-14T09:51:32.306Z,100960.13
2019-02-14T09:54:01.403Z,100957.91
2019-02-14T09:56:28.328Z,100956.11
2019-02-14T09:58:55.104Z,100951.55
2019-02-14T10:01:22.436Z,100949.05
2019-02-14T10:03:49.585Z,100955.21
2019-02-14T10:06:19.427Z,100948.41
2019-02-14T10:08:49.035Z,100943.90
2019-02-14T10:11:18.114Z,100951.95
2019-02-14T10:13:46.036Z,100954.19
2019-02-14T10:16:12.900Z,100954.19
2019-02-14T10:18:39.672Z,100946.24
2019-02-14T10:21:10.433Z,100946.24
2019-02-14T10:23:37.403Z,100944.14
2019-02-14T10:26:04.158Z,100943.48
2019-02-14T10:28:31.177Z,100933.36
2019-02-14T10:30:59.624Z,100933.36
2019-02-14T10:33:27.883Z,100937.19
2019-02-14T10:35:56.594Z,100928.20
2019-02-14T10:38:23.529Z,100928.20
2019-02-14T10:40:50.800Z,100928.58
2019-02-14T10:43:17.618Z,100927.33
2019-02-14T10:45:44.810Z,100927.33
2019-02-14T10:48:11.826Z,100929.81
2019-02-14T10:50:38.970Z,100917.11
2019-02-14T10:53:05.778Z,100919.25
2019-02-14T10:55:32.524Z,100919.25
2019-02-14T10:57:59.388Z,100915.39
2019-02-14T11:00:26.530Z,100911.97
2019-02-14T11:02:53.278Z,100911.97
2019-02-14T11:05:20.523Z,100905.31
2019-02-14T11:07:47.271Z,100912.58
2019-02-14T11:10:15.316Z,100906.08
2019-02-14T11:12:42.395Z,100903.59
2019-02-14T11:15:10.281Z,100896.95
2019-02-14T11:17:39.190Z,100891.25
2019-02-14T11:20:07.954Z,100891.25
2019-02-14T11:22:34.666Z,100896.45
2019-02-14T11:25:01.592Z,100886.49
2019-02-14T11:27:28.486Z,100880.73
2019-02-14T11:29:55.308Z,100873.77
2019-02-14T11:32:22.036Z,100870.34
2019-02-14T11:34:49.016Z,100868.64
2019-02-14T11:37:16.721Z,100866.11
2019-02-14T11:39:45.056Z,100869.04
2019-02-14T11:42:12.468Z,100868.94
2019-02-14T11:44:42.699Z,100874.10
2019-02-14T11:47:09.461Z,100870.75
2019-02-14T11:49:37.220Z,100870.24
2019-02-14T11:52:08.343Z,100867.21
2019-02-14T11:54:35.118Z,100870.95
2019-02-14T11:57:01.943Z,100860.09
2019-02-14T11:59:28.965Z,100860.78
2019-02-14T12:01:55.805Z,100855.80
2019-02-14T12:04:22.647Z,100855.88
2019-02-14T12:06:49.825Z,100855.98
2019-02-14T12:09:16.631Z,100849.58
2019-02-14T12:11:43.652Z,100844.48
2019-02-14T12:14:10.352Z,100850.23
2019-02-14T12:16:39.229Z,100836.15
2019-02-14T12:19:06.446Z,100835.48
2019-02-14T12:21:33.288Z,100831.94
2019-02-14T12:24:00.464Z,100833.22
2019-02-14T12:26:27.876Z,100833.54
2019-02-14T12:28:54.862Z,100832.90
2019-02-14T12:31:21.708Z,100825.23
2019-02-14T12:33:48.602Z,100815.92
2019-02-14T12:36:18.101Z,100809.01
2019-02-14T12:38:44.823Z,100812.55
2019-02-14T12:41:11.790Z,100809.58
2019-02-14T12:43:38.746Z,100811.34
2019-02-14T12:46:05.732Z,100785.75
2019-02-14T12:48:32.866Z,100791.32
2019-02-14T12:50:59.865Z,100783.61
2019-02-14T12:53:28.726Z,100776.00
2019-02-14T12:55:55.482Z,100768.78
2019-02-14T12:58:22.857Z,100763.23
2019-02-14T13:00:49.744Z,100763.11
2019-02-14T13:03:16.580Z,100753.08
2019-02-14T13:05:46.261Z,100748.27
2019-02-14T13:08:13.081Z,100751.08
2019-02-14T13:10:40.325Z,100740.78
2019-02-14T13:13:07.197Z,100736.12
2019-02-14T13:15:34.282Z,100730.21
2019-02-14T13:18:01.046Z,100728.45
2019-02-14T13:20:27.806Z,100729.58
2019-02-14T13:22:54.653Z,100731.59
2019-02-14T13:25:23.386Z,100724.63
2019-02-14T13:27:50.195Z,100724.77
2019-02-14T13:30:19.220Z,100723.61
2019-02-14T13:32:45.958Z,100720.97
2019-02-14T13:35:12.674Z,100722.39
2019-02-14T13:37:40.407Z,100717.48
2019-02-14T13:40:07.611Z,100716.15
2019-02-14T13:42:34.389Z,100707.41
2019-02-14T13:45:01.244Z,100710.70
2019-02-14T13:47:28.050Z,100707.34
2019-02-14T13:49:54.791Z,100709.03
2019-02-14T13:52:21.498Z,100709.66
2019-02-14T13:54:48.245Z,100708.59
2019-02-14T13:57:15.299Z,100706.22
2019-02-14T13:59:42.067Z,100702.44
2019-02-14T14:02:09.363Z,100694.14
2019-02-14T14:04:36.079Z,100690.31
2019-02-14T14:07:03.206Z,100682.48
2019-02-14T14:09:38.247Z,100684.66
2019-02-14T14:11:58.599Z,100687.33
2019-02-14T14:14:25.677Z,100681.83
2019-02-14T14:16:52.409Z,100678.98
2019-02-14T14:19:19.304Z,100677.70
2019-02-14T14:21:46.060Z,100680.96
2019-02-14T14:24:12.971Z,100676.45
2019-02-14T14:26:39.861Z,100676.55
2019-02-14T14:29:09.404Z,100664.61
2019-02-14T14:31:36.263Z,100667.57
2019-02-14T14:34:03.125Z,100666.04
2019-02-14T14:36:30.627Z,100667.57
2019-02-14T14:38:57.812Z,100679.80
2019-02-14T14:41:27.431Z,100660.80
2019-02-14T14:44:02.492Z,100652.98
2019-02-14T14:46:33.570Z,100649.25
2019-02-14T14:49:00.532Z,100670.77
2019-02-14T14:51:27.254Z,100656.17
2019-02-14T14:53:57.317Z,100657.20
2019-02-14T14:56:24.130Z,100656.73
2019-02-14T14:58:51.073Z,100665.28
2019-02-14T15:01:17.943Z,100670.75
2019-02-14T15:03:45.194Z,100667.99
2019-02-14T15:06:15.008Z,100671.03
2019-02-14T15:08:42.001Z,100675.78
2019-02-14T15:11:09.031Z,100670.72
2019-02-14T15:13:39.980Z,100659.38
2019-02-14T15:16:08.150Z,100654.64
2019-02-14T15:18:34.873Z,100659.94
2019-02-14T15:21:01.755Z,100656.58
2019-02-14T15:23:29.259Z,100657.94
2019-02-14T15:25:56.226Z,100655.23
2019-02-14T15:28:25.281Z,100651.67
2019-02-14T15:30:52.107Z,100647.64
2019-02-14T15:33:19.022Z,100649.47
2019-02-14T15:35:45.899Z,100649.16
2019-02-14T15:38:13.078Z,100648.80
2019-02-14T15:40:39.847Z,100650.57
2019-02-14T15:43:06.689Z,100644.64
2019-02-14T15:45:35.011Z,100638.30
2019-02-14T15:48:02.111Z,100640.13
2019-02-14T15:50:29.998Z,100649.36
2019-02-14T15:52:57.995Z,100643.94
2019-02-14T15:55:25.106Z,100637.55
2019-02-14T15:57:52.193Z,100637.05
2019-02-14T16:00:18.968Z,100667.80
2019-02-14T16:02:47.773Z,100656.50
2019-02-14T16:05:16.526Z,100650.59
2019-02-14T16:07:43.451Z,100651.55
2019-02-14T16:10:18.257Z,100656.83
2019-02-14T16:12:41.091Z,100657.14
2019-02-14T16:15:09.104Z,100650.78
2019-02-14T16:17:37.458Z,100649.77
2019-02-14T16:20:04.631Z,100655.38
2019-02-14T16:22:34.580Z,100645.73
2019-02-14T16:25:02.669Z,100652.16
2019-02-14T16:27:30.189Z,100649.45
2019-02-14T16:29:56.928Z,100647.64
2019-02-14T16:32:24.411Z,100650.22
2019-02-14T16:34:51.387Z,100656.19
2019-02-14T16:37:18.411Z,100653.55
2019-02-14T16:39:51.548Z,100647.98
2019-02-14T16:42:14.159Z,100659.00
2019-02-14T16:44:41.362Z,100663.28
2019-02-14T16:47:08.488Z,100662.92
2019-02-14T16:49:35.257Z,100653.95
2019-02-14T16:52:02.059Z,100659.70
2019-02-14T16:54:28.951Z,100663.82
2019-02-14T16:56:55.831Z,100672.69
2019-02-14T16:59:22.867Z,100675.02
2019-02-14T17:01:49.683Z,100674.12
2019-02-14T17:04:18.289Z,100681.10
2019-02-14T17:06:45.220Z,100682.55
2019-02-14T17:09:12.443Z,100687.53
2019-02-14T17:11:39.323Z,100692.88
2019-02-14T17:14:06.305Z,100701.19
2019-02-14T17:16:33.393Z,100700.73
2019-02-14T17:19:00.275Z,100703.84
2019-02-14T17:21:27.072Z,100710.22
2019-02-14T17:23:54.007Z,100711.95
2019-02-14T17:26:21.087Z,100719.81
2019-02-14T17:28:47.936Z,100717.27
2019-02-14T17:31:14.761Z,100721.36
2019-02-14T17:33:41.483Z,100720.22
2019-02-14T17:36:08.297Z,100735.67
2019-02-14T17:38:35.192Z,100729.62
2019-02-14T17:41:02.135Z,100735.24
2019-02-14T17:43:29.466Z,100738.92
2019-02-14T17:45:56.204Z,100735.48
2019-02-14T17:48:23.100Z,100730.97
2019-02-14T17:50:50.203Z,100732.91
2019-02-14T17:53:17.407Z,100725.91
2019-02-14T17:55:44.179Z,100732.11
2019-02-14T17:58:10.941Z,100722.98
2019-02-14T18:00:39.653Z,100723.94
2019-02-14T18:03:06.574Z,100727.09
2019-02-14T18:05:33.499Z,100725.72
2019-02-14T18:08:00.681Z,100725.22
2019-02-14T18:10:27.642Z,100732.53
2019-02-14T18:12:55.786Z,100727.17
2019-02-14T18:15:23.115Z,100720.41
2019-02-14T18:17:49.873Z,100723.64
2019-02-14T18:20:16.606Z,100720.09
2019-02-14T18:22:43.363Z,100724.05
2019-02-14T18:25:10.906Z,100735.19
2019-02-14T18:27:38.044Z,100727.29
2019-02-14T18:30:05.788Z,100726.90
2019-02-14T18:32:32.578Z,100721.63
2019-02-14T18:34:59.354Z,100732.06
2019-02-14T18:37:26.152Z,100725.19
2019-02-14T18:39:55.852Z,100733.79
2019-02-14T18:42:22.613Z,100714.22
2019-02-14T18:44:49.318Z,100713.61
2019-02-14T18:47:16.390Z,100710.58
2019-02-14T18:49:43.401Z,100716.52
2019-02-14T18:52:10.324Z,100720.36
2019-02-14T18:54:37.171Z,100711.14
2019-02-14T18:57:04.258Z,100715.46
2019-02-14T18:59:31.093Z,100719.52
2019-02-14T19:01:57.886Z,100716.38
2019-02-14T19:04:24.834Z,100722.63
2019-02-14T19:06:52.010Z,100714.39
2019-02-14T19:09:19.363Z,100716.59
2019-02-14T19:11:49.434Z,100714.42
2019-02-14T19:14:16.564Z,100715.87
2019-02-14T19:16:43.459Z,100717.69
2019-02-14T19:19:10.278Z,100730.19
2019-02-14T19:21:37.074Z,100734.67
2019-02-14T19:24:04.021Z,100728.55
2019-02-14T19:26:30.734Z,100717.69
2019-02-14T19:28:57.691Z,100717.94
2019-02-14T19:31:24.532Z,100726.58
2019-02-14T19:33:51.453Z,100721.83
2019-02-14T19:36:18.249Z,100723.17
2019-02-14T19:38:45.087Z,100720.49
2019-02-14T19:41:11.952Z,100728.98
2019-02-14T19:43:38.752Z,100726.27
2019-02-14T19:46:05.522Z,100721.70
2019-02-14T19:48:32.458Z,100717.84
2019-02-14T19:50:59.440Z,100714.41
2019-02-14T19:53:26.190Z,100711.86
2019-02-14T19:55:54.247Z,100713.50
2019-02-14T19:58:21.054Z,100712.05
2019-02-14T20:00:47.888Z,100707.96
2019-02-14T20:03:14.665Z,100708.45
2019-02-14T20:05:41.445Z,100709.48
2019-02-14T20:08:10.165Z,100709.23
2019-02-14T20:10:37.287Z,100707.30
2019-02-14T20:13:04.030Z,100707.44
2019-02-14T20:15:37.357Z,100706.81
2019-02-14T20:18:01.916Z,100712.00
2019-02-14T20:20:31.853Z,100707.38
2019-02-14T20:22:58.633Z,100710.38
2019-02-14T20:25:27.920Z,100705.95
2019-02-14T20:27:55.331Z,100705.25
2019-02-14T20:30:24.945Z,100705.41
2019-02-14T20:32:52.377Z,100703.40
2019-02-14T20:35:19.178Z,100702.02
2019-02-14T20:37:46.199Z,100705.94
2019-02-14T20:40:13.018Z,100715.03
2019-02-14T20:42:40.075Z,100711.75
2019-02-14T20:45:07.888Z,100706.56
2019-02-14T20:47:34.758Z,100708.02
2019-02-14T20:50:01.531Z,100706.70
2019-02-14T20:52:28.341Z,100703.25
2019-02-14T20:54:55.236Z,100703.11
2019-02-14T20:57:22.074Z,100705.02
2019-02-14T20:59:48.802Z,100710.59
2019-02-14T21:02:17.656Z,100709.69
2019-02-14T21:04:44.545Z,100712.24
2019-02-14T21:07:11.317Z,100701.38
2019-02-14T21:09:38.063Z,100706.83
2019-02-14T21:12:04.829Z,100709.89
2019-02-14T21:14:31.826Z,100736.07
2019-02-14T21:16:58.585Z,100704.41
2019-02-14T21:19:25.416Z,100713.48
2019-02-14T21:21:52.160Z,100711.25
2019-02-14T21:24:19.206Z,100711.25
2019-02-14T21:26:46.470Z,100712.91
2019-02-14T21:29:13.534Z,100711.35
2019-02-14T21:31:40.279Z,100711.35
2019-02-14T21:34:07.468Z,100704.58
2019-02-14T21:36:34.696Z,100707.98
2019-02-14T21:39:01.611Z,100700.55
2019-02-14T21:41:30.556Z,100700.55
2019-02-14T21:43:57.539Z,100716.39
2019-02-14T21:46:24.289Z,100709.56
2019-02-14T21:48:51.228Z,100704.14
2019-02-14T21:51:18.415Z,100704.14
2019-02-14T21:53:45.163Z,100706.42
2019-02-14T21:56:12.114Z,100706.94
2019-02-14T21:58:39.602Z,100707.05
2019-02-14T22:01:06.690Z,100707.05
2019-02-14T22:03:33.605Z,100701.87
2019-02-14T22:06:00.904Z,100707.55
2019-02-14T22:08:28.149Z,100707.55
2019-02-14T22:10:55.111Z,100700.08
2019-02-14T22:13:22.135Z,100695.62
2019-02-14T22:15:48.972Z,100695.62
2019-02-14T22:18:15.784Z,100704.61
2019-02-14T22:20:44.541Z,100707.55
2019-02-14T22:23:11.413Z,100707.55
2019-02-14T22:25:41.281Z,100714.26
2019-02-14T22:28:08.129Z,100695.67
2019-02-14T22:30:34.957Z,100707.22
2019-02-14T22:33:01.755Z,100706.48
2019-02-14T22:35:28.959Z,100704.84
2019-02-14T22:37:55.974Z,100710.83
2019-02-14T22:40:22.691Z,100704.40
2019-02-14T22:42:51.688Z,100711.91
2019-02-14T22:45:18.464Z,100707.22
2019-02-14T22:47:45.217Z,100703.94
2019-02-14T22:50:11.952Z,100701.87
2019-02-14T22:52:38.775Z,100701.36
2019-02-14T22:55:06.371Z,100703.94
2019-02-14T22:57:33.062Z,100708.27
2019-02-14T22:59:59.781Z,100698.08
2019-02-14T23:02:26.519Z,100700.69
2019-02-14T23:04:53.263Z,100695.19
2019-02-14T23:07:20.016Z,100692.33
2019-02-14T23:09:46.717Z,100692.33
2019-02-14T23:12:13.471Z,100707.06
2019-02-14T23:14:40.371Z,100694.53
2019-02-14T23:17:07.087Z,100700.41
2019-02-14T23:19:33.830Z,100699.45
2019-02-14T23:22:01.373Z,100701.36
2019-02-14T23:24:28.169Z,100693.87
2019-02-14T23:26:55.017Z,100687.67
2019-02-14T23:29:21.795Z,100694.53
2019-02-14T23:31:48.566Z,100692.91
2019-02-14T23:34:15.299Z,100699.78
2019-02-14T23:36:42.025Z,100697.35
2019-02-14T23:39:08.848Z,100697.13
2019-02-14T23:41:35.586Z,100695.17
2019-02-14T23:44:02.432Z,100687.86
2019-02-14T23:46:29.151Z,100700.94
2019-02-14T23:48:55.886Z,100701.72
2019-02-14T23:51:22.614Z,100697.97
2019-02-14T23:53:52.249Z,100698.13
2019-02-14T23:56:21.335Z,100710.89
2019-02-14T23:58:48.235Z,100694.59
